sensor_id;sensor_type;location;lat;lon;timestamp;P1;durP1;ratioP1;P2;durP2;ratioP2
10063;SDS011;5071;52.360;13.134;2023-08-07T00:04:00;6.03;;;5.03;;
10063;SDS011;5071;52.360;13.134;2023-08-07T00:09:04;7.83;;;4.83;;
10063;SDS011;5071;52.360;13.134;2023-08-07T00:14:06;5.70;;;5.10;;
10063;SDS011;5071;52.360;13.134;2023-08-07T00:19:09;7.07;;;5.53;;
10063;SDS011;5071;52.360;13.134;2023-08-07T00:24:12;6.03;;;5.43;;
10063;SDS011;5071;52.360;13.134;2023-08-07T00:29:14;6.27;;;5.23;;
10063;SDS011;5071;52.360;13.134;2023-08-07T00:34:16;8.07;;;6.00;;
10063;SDS011;5071;52.360;13.134;2023-08-07T00:39:19;7.27;;;5.70;;
10063;SDS011;5071;52.360;13.134;2023-08-07T00:44:22;7.37;;;4.93;;
10063;SDS011;5071;52.360;13.134;2023-08-07T00:49:24;8.77;;;5.37;;
10063;SDS011;5071;52.360;13.134;2023-08-07T00:54:28;7.77;;;5.20;;
10063;SDS011;5071;52.360;13.134;2023-08-07T00:59:30;6.83;;;5.23;;
10063;SDS011;5071;52.360;13.134;2023-08-07T01:04:33;5.97;;;4.83;;
10063;SDS011;5071;52.360;13.134;2023-08-07T01:09:37;6.97;;;4.63;;
10063;SDS011;5071;52.360;13.134;2023-08-07T01:14:40;5.80;;;5.13;;
10063;SDS011;5071;52.360;13.134;2023-08-07T01:19:50;8.97;;;4.90;;
10063;SDS011;5071;52.360;13.134;2023-08-07T01:24:53;7.00;;;5.00;;
10063;SDS011;5071;52.360;13.134;2023-08-07T01:29:57;6.43;;;5.17;;
10063;SDS011;5071;52.360;13.134;2023-08-07T01:35:03;6.20;;;5.60;;
10063;SDS011;5071;52.360;13.134;2023-08-07T01:40:08;7.90;;;5.50;;
10063;SDS011;5071;52.360;13.134;2023-08-07T01:45:11;5.97;;;5.37;;
10063;SDS011;5071;52.360;13.134;2023-08-07T01:50:13;7.37;;;5.50;;
10063;SDS011;5071;52.360;13.134;2023-08-07T01:55:17;10.07;;;6.17;;
10063;SDS011;5071;52.360;13.134;2023-08-07T02:00:20;7.90;;;5.53;;
10063;SDS011;5071;52.360;13.134;2023-08-07T02:05:22;7.20;;;5.90;;
10063;SDS011;5071;52.360;13.134;2023-08-07T02:10:26;6.13;;;5.53;;
10063;SDS011;5071;52.360;13.134;2023-08-07T02:15:28;7.63;;;5.30;;
10063;SDS011;5071;52.360;13.134;2023-08-07T02:20:31;5.93;;;5.17;;
10063;SDS011;5071;52.360;13.134;2023-08-07T02:25:34;7.67;;;5.40;;
10063;SDS011;5071;52.360;13.134;2023-08-07T02:30:36;6.13;;;5.53;;
10063;SDS011;5071;52.360;13.134;2023-08-07T02:35:38;11.50;;;7.30;;
10063;SDS011;5071;52.360;13.134;2023-08-07T02:40:42;8.70;;;6.33;;
10063;SDS011;5071;52.360;13.134;2023-08-07T02:45:44;7.70;;;6.60;;
10063;SDS011;5071;52.360;13.134;2023-08-07T02:50:46;7.07;;;6.37;;
10063;SDS011;5071;52.360;13.134;2023-08-07T02:55:49;9.17;;;6.57;;
10063;SDS011;5071;52.360;13.134;2023-08-07T03:00:52;8.10;;;7.07;;
10063;SDS011;5071;52.360;13.134;2023-08-07T03:05:54;11.17;;;6.73;;
10063;SDS011;5071;52.360;13.134;2023-08-07T03:10:58;9.93;;;7.53;;
10063;SDS011;5071;52.360;13.134;2023-08-07T03:16:00;9.13;;;7.53;;
10063;SDS011;5071;52.360;13.134;2023-08-07T03:21:03;9.03;;;7.10;;
10063;SDS011;5071;52.360;13.134;2023-08-07T03:26:07;8.93;;;7.90;;
10063;SDS011;5071;52.360;13.134;2023-08-07T03:31:14;9.47;;;8.47;;
10063;SDS011;5071;52.360;13.134;2023-08-07T03:36:16;14.23;;;8.13;;
10063;SDS011;5071;52.360;13.134;2023-08-07T03:41:19;9.77;;;7.53;;
10063;SDS011;5071;52.360;13.134;2023-08-07T03:46:21;7.93;;;7.00;;
10063;SDS011;5071;52.360;13.134;2023-08-07T03:51:23;7.70;;;6.77;;
10063;SDS011;5071;52.360;13.134;2023-08-07T03:56:27;8.53;;;7.23;;
10063;SDS011;5071;52.360;13.134;2023-08-07T04:01:29;7.73;;;6.97;;
10063;SDS011;5071;52.360;13.134;2023-08-07T04:06:31;8.70;;;6.20;;
10063;SDS011;5071;52.360;13.134;2023-08-07T04:11:35;9.77;;;6.23;;
10063;SDS011;5071;52.360;13.134;2023-08-07T04:16:37;6.20;;;4.80;;
10063;SDS011;5071;52.360;13.134;2023-08-07T04:21:38;9.70;;;6.37;;
10063;SDS011;5071;52.360;13.134;2023-08-07T04:26:42;5.33;;;4.83;;
10063;SDS011;5071;52.360;13.134;2023-08-07T04:31:44;6.10;;;5.30;;
10063;SDS011;5071;52.360;13.134;2023-08-07T04:36:45;6.63;;;5.47;;
10063;SDS011;5071;52.360;13.134;2023-08-07T04:41:49;6.93;;;5.47;;
10063;SDS011;5071;52.360;13.134;2023-08-07T04:46:51;8.30;;;5.07;;
10063;SDS011;5071;52.360;13.134;2023-08-07T04:51:53;5.00;;;4.50;;
10063;SDS011;5071;52.360;13.134;2023-08-07T04:56:56;4.63;;;4.23;;
10063;SDS011;5071;52.360;13.134;2023-08-07T05:01:58;11.60;;;5.23;;
10063;SDS011;5071;52.360;13.134;2023-08-07T05:07:01;4.63;;;4.13;;
10063;SDS011;5071;52.360;13.134;2023-08-07T05:12:04;4.67;;;3.67;;
10063;SDS011;5071;52.360;13.134;2023-08-07T05:17:07;5.17;;;3.77;;
10063;SDS011;5071;52.360;13.134;2023-08-07T05:22:10;8.10;;;4.20;;
10063;SDS011;5071;52.360;13.134;2023-08-07T05:27:14;4.30;;;3.33;;
10063;SDS011;5071;52.360;13.134;2023-08-07T05:32:16;6.33;;;3.50;;
10063;SDS011;5071;52.360;13.134;2023-08-07T05:37:18;4.87;;;3.00;;
10063;SDS011;5071;52.360;13.134;2023-08-07T05:42:22;6.93;;;3.17;;
10063;SDS011;5071;52.360;13.134;2023-08-07T05:47:24;2.83;;;2.63;;
10063;SDS011;5071;52.360;13.134;2023-08-07T05:52:26;5.67;;;2.43;;
10063;SDS011;5071;52.360;13.134;2023-08-07T05:57:29;3.13;;;2.57;;
10063;SDS011;5071;52.360;13.134;2023-08-07T06:02:32;2.75;;;2.45;;
10063;SDS011;5071;52.360;13.134;2023-08-07T06:07:34;3.33;;;2.38;;
10063;SDS011;5071;52.360;13.134;2023-08-07T06:12:38;2.22;;;2.03;;
10063;SDS011;5071;52.360;13.134;2023-08-07T06:17:40;3.83;;;2.30;;
10063;SDS011;5071;52.360;13.134;2023-08-07T06:22:42;6.07;;;3.10;;
10063;SDS011;5071;52.360;13.134;2023-08-07T06:27:46;3.57;;;2.37;;
10063;SDS011;5071;52.360;13.134;2023-08-07T06:32:48;4.37;;;2.43;;
10063;SDS011;5071;52.360;13.134;2023-08-07T06:37:50;5.93;;;2.70;;
10063;SDS011;5071;52.360;13.134;2023-08-07T06:42:53;3.43;;;2.73;;
10063;SDS011;5071;52.360;13.134;2023-08-07T06:47:55;2.90;;;2.37;;
10063;SDS011;5071;52.360;13.134;2023-08-07T06:52:57;5.57;;;2.70;;
10063;SDS011;5071;52.360;13.134;2023-08-07T06:58:01;2.73;;;2.40;;
10063;SDS011;5071;52.360;13.134;2023-08-07T07:03:03;2.97;;;2.63;;
10063;SDS011;5071;52.360;13.134;2023-08-07T07:08:06;3.87;;;2.30;;
10063;SDS011;5071;52.360;13.134;2023-08-07T07:13:09;3.37;;;2.10;;
10063;SDS011;5071;52.360;13.134;2023-08-07T07:18:12;2.77;;;2.00;;
10063;SDS011;5071;52.360;13.134;2023-08-07T07:23:14;2.67;;;2.00;;
10063;SDS011;5071;52.360;13.134;2023-08-07T07:28:17;4.17;;;2.10;;
10063;SDS011;5071;52.360;13.134;2023-08-07T07:33:19;3.60;;;2.00;;
10063;SDS011;5071;52.360;13.134;2023-08-07T07:38:21;2.73;;;1.90;;
10063;SDS011;5071;52.360;13.134;2023-08-07T07:43:25;2.80;;;1.83;;
10063;SDS011;5071;52.360;13.134;2023-08-07T07:48:27;2.60;;;1.70;;
10063;SDS011;5071;52.360;13.134;2023-08-07T07:53:29;1.70;;;1.60;;
10063;SDS011;5071;52.360;13.134;2023-08-07T07:58:33;2.60;;;2.00;;
10063;SDS011;5071;52.360;13.134;2023-08-07T08:03:35;3.10;;;2.27;;
10063;SDS011;5071;52.360;13.134;2023-08-07T08:08:37;3.53;;;2.13;;
10063;SDS011;5071;52.360;13.134;2023-08-07T08:13:41;5.07;;;2.37;;
10063;SDS011;5071;52.360;13.134;2023-08-07T08:18:43;3.27;;;2.10;;
10063;SDS011;5071;52.360;13.134;2023-08-07T08:23:45;3.30;;;1.80;;
10063;SDS011;5071;52.360;13.134;2023-08-07T08:28:48;3.00;;;2.00;;
10063;SDS011;5071;52.360;13.134;2023-08-07T08:33:50;2.63;;;1.67;;
10063;SDS011;5071;52.360;13.134;2023-08-07T08:38:53;4.17;;;1.60;;
10063;SDS011;5071;52.360;13.134;2023-08-07T08:43:56;3.73;;;1.63;;
10063;SDS011;5071;52.360;13.134;2023-08-07T08:49:01;3.63;;;1.63;;
10063;SDS011;5071;52.360;13.134;2023-08-07T08:54:05;2.60;;;1.80;;
10063;SDS011;5071;52.360;13.134;2023-08-07T08:59:09;2.57;;;1.87;;
10063;SDS011;5071;52.360;13.134;2023-08-07T09:04:12;3.20;;;1.90;;
10063;SDS011;5071;52.360;13.134;2023-08-07T09:09:16;4.37;;;1.50;;
10063;SDS011;5071;52.360;13.134;2023-08-07T09:14:24;3.23;;;1.60;;
10063;SDS011;5071;52.360;13.134;2023-08-07T09:19:29;1.93;;;1.43;;
10063;SDS011;5071;52.360;13.134;2023-08-07T09:24:31;1.43;;;1.30;;
10063;SDS011;5071;52.360;13.134;2023-08-07T09:29:34;1.97;;;1.60;;
10063;SDS011;5071;52.360;13.134;2023-08-07T09:34:37;2.10;;;1.20;;
10063;SDS011;5071;52.360;13.134;2023-08-07T09:39:40;2.57;;;1.70;;
10063;SDS011;5071;52.360;13.134;2023-08-07T09:44:44;2.90;;;1.50;;
10063;SDS011;5071;52.360;13.134;2023-08-07T09:49:46;1.97;;;1.30;;
10063;SDS011;5071;52.360;13.134;2023-08-07T09:54:48;2.53;;;1.40;;
10063;SDS011;5071;52.360;13.134;2023-08-07T09:59:51;2.33;;;1.20;;
10063;SDS011;5071;52.360;13.134;2023-08-07T10:04:54;2.27;;;1.70;;
10063;SDS011;5071;52.360;13.134;2023-08-07T10:09:56;2.22;;;1.23;;
10063;SDS011;5071;52.360;13.134;2023-08-07T10:15:02;3.08;;;1.20;;
10063;SDS011;5071;52.360;13.134;2023-08-07T10:20:05;2.45;;;1.58;;
10063;SDS011;5071;52.360;13.134;2023-08-07T10:25:08;1.80;;;1.30;;
10063;SDS011;5071;52.360;13.134;2023-08-07T10:30:12;2.00;;;1.30;;
10063;SDS011;5071;52.360;13.134;2023-08-07T10:35:25;2.22;;;1.20;;
10063;SDS011;5071;52.360;13.134;2023-08-07T10:40:31;2.73;;;1.00;;
10063;SDS011;5071;52.360;13.134;2023-08-07T10:45:34;1.88;;;1.15;;
10063;SDS011;5071;52.360;13.134;2023-08-07T10:50:49;3.70;;;1.55;;
10063;SDS011;5071;52.360;13.134;2023-08-07T10:55:52;1.67;;;1.20;;
10063;SDS011;5071;52.360;13.134;2023-08-07T11:06:21;2.50;;;1.10;;
10063;SDS011;5071;52.360;13.134;2023-08-07T11:11:24;1.70;;;1.23;;
10063;SDS011;5071;52.360;13.134;2023-08-07T11:16:30;2.13;;;1.20;;
10063;SDS011;5071;52.360;13.134;2023-08-07T11:21:32;2.40;;;1.23;;
10063;SDS011;5071;52.360;13.134;2023-08-07T11:26:35;1.93;;;1.60;;
10063;SDS011;5071;52.360;13.134;2023-08-07T11:31:38;3.50;;;1.80;;
10063;SDS011;5071;52.360;13.134;2023-08-07T11:36:41;3.90;;;1.80;;
10063;SDS011;5071;52.360;13.134;2023-08-07T11:41:44;3.20;;;1.80;;
10063;SDS011;5071;52.360;13.134;2023-08-07T11:46:48;2.00;;;1.27;;
10063;SDS011;5071;52.360;13.134;2023-08-07T11:51:52;1.60;;;1.47;;
10063;SDS011;5071;52.360;13.134;2023-08-07T11:56:54;1.37;;;1.10;;
10063;SDS011;5071;52.360;13.134;2023-08-07T12:01:58;2.93;;;1.10;;
10063;SDS011;5071;52.360;13.134;2023-08-07T12:07:00;2.77;;;1.50;;
10063;SDS011;5071;52.360;13.134;2023-08-07T12:12:02;4.80;;;1.25;;
10063;SDS011;5071;52.360;13.134;2023-08-07T12:17:08;3.67;;;1.30;;
10063;SDS011;5071;52.360;13.134;2023-08-07T12:22:11;2.47;;;1.33;;
10063;SDS011;5071;52.360;13.134;2023-08-07T12:27:13;2.13;;;1.13;;
10063;SDS011;5071;52.360;13.134;2023-08-07T12:32:17;3.13;;;1.27;;
10063;SDS011;5071;52.360;13.134;2023-08-07T12:37:19;1.97;;;1.00;;
10063;SDS011;5071;52.360;13.134;2023-08-07T12:42:21;2.33;;;1.30;;
10063;SDS011;5071;52.360;13.134;2023-08-07T12:47:27;2.50;;;0.98;;
10063;SDS011;5071;52.360;13.134;2023-08-07T12:52:29;2.20;;;1.13;;
10063;SDS011;5071;52.360;13.134;2023-08-07T12:57:32;2.65;;;1.00;;
10063;SDS011;5071;52.360;13.134;2023-08-07T13:02:35;2.45;;;1.42;;
10063;SDS011;5071;52.360;13.134;2023-08-07T13:07:37;2.63;;;1.60;;
10063;SDS011;5071;52.360;13.134;2023-08-07T13:12:41;2.72;;;1.50;;
10063;SDS011;5071;52.360;13.134;2023-08-07T13:17:45;3.70;;;1.70;;
10063;SDS011;5071;52.360;13.134;2023-08-07T13:22:47;2.72;;;1.50;;
10063;SDS011;5071;52.360;13.134;2023-08-07T13:27:49;3.63;;;1.67;;
10063;SDS011;5071;52.360;13.134;2023-08-07T13:32:53;4.50;;;1.90;;
10063;SDS011;5071;52.360;13.134;2023-08-07T13:37:56;4.90;;;1.60;;
10063;SDS011;5071;52.360;13.134;2023-08-07T13:42:58;4.22;;;1.35;;
10063;SDS011;5071;52.360;13.134;2023-08-07T13:48:02;3.63;;;1.75;;
10063;SDS011;5071;52.360;13.134;2023-08-07T13:53:05;3.72;;;1.52;;
10063;SDS011;5071;52.360;13.134;2023-08-07T13:58:16;2.17;;;1.30;;
10063;SDS011;5071;52.360;13.134;2023-08-07T14:03:20;1.40;;;1.25;;
10063;SDS011;5071;52.360;13.134;2023-08-07T14:08:23;3.15;;;1.30;;
10063;SDS011;5071;52.360;13.134;2023-08-07T14:13:25;3.72;;;1.63;;
10063;SDS011;5071;52.360;13.134;2023-08-07T14:18:29;3.60;;;1.50;;
10063;SDS011;5071;52.360;13.134;2023-08-07T14:23:31;1.60;;;1.20;;
10063;SDS011;5071;52.360;13.134;2023-08-07T14:28:35;3.10;;;1.60;;
10063;SDS011;5071;52.360;13.134;2023-08-07T14:33:38;3.37;;;1.70;;
10063;SDS011;5071;52.360;13.134;2023-08-07T14:38:40;5.87;;;1.90;;
10063;SDS011;5071;52.360;13.134;2023-08-07T14:43:42;4.97;;;1.80;;
10063;SDS011;5071;52.360;13.134;2023-08-07T14:48:46;4.67;;;1.70;;
10063;SDS011;5071;52.360;13.134;2023-08-07T14:53:49;2.75;;;1.83;;
10063;SDS011;5071;52.360;13.134;2023-08-07T14:58:51;5.47;;;1.70;;
10063;SDS011;5071;52.360;13.134;2023-08-07T15:03:55;3.28;;;1.40;;
10063;SDS011;5071;52.360;13.134;2023-08-07T15:08:57;4.37;;;1.87;;
10063;SDS011;5071;52.360;13.134;2023-08-07T15:13:59;3.83;;;1.40;;
10063;SDS011;5071;52.360;13.134;2023-08-07T15:19:03;5.07;;;1.50;;
10063;SDS011;5071;52.360;13.134;2023-08-07T15:24:05;2.45;;;1.33;;
10063;SDS011;5071;52.360;13.134;2023-08-07T15:29:07;5.10;;;1.33;;
10063;SDS011;5071;52.360;13.134;2023-08-07T15:34:11;3.85;;;1.45;;
10063;SDS011;5071;52.360;13.134;2023-08-07T15:39:13;4.80;;;1.73;;
10063;SDS011;5071;52.360;13.134;2023-08-07T15:44:15;4.80;;;1.63;;
10063;SDS011;5071;52.360;13.134;2023-08-07T15:49:19;3.60;;;1.60;;
10063;SDS011;5071;52.360;13.134;2023-08-07T15:54:21;3.17;;;1.53;;
10063;SDS011;5071;52.360;13.134;2023-08-07T15:59:24;5.60;;;2.20;;
10063;SDS011;5071;52.360;13.134;2023-08-07T16:04:28;3.83;;;1.70;;
10063;SDS011;5071;52.360;13.134;2023-08-07T16:09:30;3.07;;;1.50;;
10063;SDS011;5071;52.360;13.134;2023-08-07T16:14:33;2.10;;;1.40;;
10063;SDS011;5071;52.360;13.134;2023-08-07T16:19:39;2.00;;;1.47;;
10063;SDS011;5071;52.360;13.134;2023-08-07T16:24:42;5.10;;;1.83;;
10063;SDS011;5071;52.360;13.134;2023-08-07T16:29:44;5.43;;;1.80;;
10063;SDS011;5071;52.360;13.134;2023-08-07T16:34:47;5.60;;;1.93;;
10063;SDS011;5071;52.360;13.134;2023-08-07T16:39:50;3.67;;;1.70;;
10063;SDS011;5071;52.360;13.134;2023-08-07T16:44:52;3.33;;;1.67;;
10063;SDS011;5071;52.360;13.134;2023-08-07T16:49:55;5.33;;;1.60;;
10063;SDS011;5071;52.360;13.134;2023-08-07T16:54:58;4.83;;;1.70;;
10063;SDS011;5071;52.360;13.134;2023-08-07T17:00:00;5.30;;;2.10;;
10063;SDS011;5071;52.360;13.134;2023-08-07T17:05:04;3.70;;;1.50;;
10063;SDS011;5071;52.360;13.134;2023-08-07T17:10:07;2.57;;;1.73;;
10063;SDS011;5071;52.360;13.134;2023-08-07T17:15:10;3.50;;;2.10;;
10063;SDS011;5071;52.360;13.134;2023-08-07T17:20:13;5.57;;;1.97;;
10063;SDS011;5071;52.360;13.134;2023-08-07T17:25:16;4.93;;;1.90;;
10063;SDS011;5071;52.360;13.134;2023-08-07T17:30:18;3.77;;;1.60;;
10063;SDS011;5071;52.360;13.134;2023-08-07T17:35:21;3.40;;;1.50;;
10063;SDS011;5071;52.360;13.134;2023-08-07T17:40:24;7.17;;;1.50;;
10063;SDS011;5071;52.360;13.134;2023-08-07T17:45:26;6.90;;;2.10;;
10063;SDS011;5071;52.360;13.134;2023-08-07T17:50:29;5.13;;;1.77;;
10063;SDS011;5071;52.360;13.134;2023-08-07T17:55:31;5.10;;;1.70;;
10063;SDS011;5071;52.360;13.134;2023-08-07T18:00:34;2.90;;;1.50;;
10063;SDS011;5071;52.360;13.134;2023-08-07T18:05:38;4.50;;;1.80;;
10063;SDS011;5071;52.360;13.134;2023-08-07T18:10:40;5.43;;;2.10;;
10063;SDS011;5071;52.360;13.134;2023-08-07T18:15:42;5.00;;;1.80;;
10063;SDS011;5071;52.360;13.134;2023-08-07T18:20:45;5.80;;;1.70;;
10063;SDS011;5071;52.360;13.134;2023-08-07T18:25:48;6.33;;;2.00;;
10063;SDS011;5071;52.360;13.134;2023-08-07T18:30:50;5.80;;;1.70;;
10063;SDS011;5071;52.360;13.134;2023-08-07T18:35:54;5.27;;;1.73;;
10063;SDS011;5071;52.360;13.134;2023-08-07T18:40:56;4.30;;;1.80;;
10063;SDS011;5071;52.360;13.134;2023-08-07T18:45:58;3.27;;;1.60;;
10063;SDS011;5071;52.360;13.134;2023-08-07T18:51:01;7.30;;;1.70;;
10063;SDS011;5071;52.360;13.134;2023-08-07T18:56:03;6.57;;;1.80;;
10063;SDS011;5071;52.360;13.134;2023-08-07T19:01:06;3.80;;;1.57;;
10063;SDS011;5071;52.360;13.134;2023-08-07T19:06:09;2.53;;;1.43;;
10063;SDS011;5071;52.360;13.134;2023-08-07T19:11:11;4.47;;;1.60;;
10063;SDS011;5071;52.360;13.134;2023-08-07T19:16:12;6.40;;;2.00;;
10063;SDS011;5071;52.360;13.134;2023-08-07T19:21:16;3.33;;;1.80;;
10063;SDS011;5071;52.360;13.134;2023-08-07T19:26:18;3.07;;;1.60;;
10063;SDS011;5071;52.360;13.134;2023-08-07T19:31:20;3.67;;;1.90;;
10063;SDS011;5071;52.360;13.134;2023-08-07T19:36:23;2.47;;;1.60;;
10063;SDS011;5071;52.360;13.134;2023-08-07T19:41:26;4.73;;;1.73;;
10063;SDS011;5071;52.360;13.134;2023-08-07T19:46:28;2.03;;;1.53;;
10063;SDS011;5071;52.360;13.134;2023-08-07T19:51:31;3.93;;;1.60;;
10063;SDS011;5071;52.360;13.134;2023-08-07T19:56:33;7.73;;;1.63;;
10063;SDS011;5071;52.360;13.134;2023-08-07T20:01:37;3.80;;;1.63;;
10063;SDS011;5071;52.360;13.134;2023-08-07T20:06:40;2.90;;;1.60;;
10063;SDS011;5071;52.360;13.134;2023-08-07T20:11:42;3.53;;;1.60;;
10063;SDS011;5071;52.360;13.134;2023-08-07T20:16:45;3.90;;;1.60;;
10063;SDS011;5071;52.360;13.134;2023-08-07T20:21:48;3.90;;;1.50;;
10063;SDS011;5071;52.360;13.134;2023-08-07T20:26:51;2.60;;;1.47;;
10063;SDS011;5071;52.360;13.134;2023-08-07T20:31:53;5.57;;;2.07;;
10063;SDS011;5071;52.360;13.134;2023-08-07T20:36:56;4.33;;;1.90;;
10063;SDS011;5071;52.360;13.134;2023-08-07T20:41:58;6.60;;;2.10;;
10063;SDS011;5071;52.360;13.134;2023-08-07T20:47:00;4.30;;;1.77;;
10063;SDS011;5071;52.360;13.134;2023-08-07T20:52:05;4.93;;;1.97;;
10063;SDS011;5071;52.360;13.134;2023-08-07T20:57:07;4.00;;;1.80;;
10063;SDS011;5071;52.360;13.134;2023-08-07T21:02:10;3.03;;;1.87;;
10063;SDS011;5071;52.360;13.134;2023-08-07T21:07:13;4.90;;;2.07;;
10063;SDS011;5071;52.360;13.134;2023-08-07T21:12:16;6.17;;;1.93;;
10063;SDS011;5071;52.360;13.134;2023-08-07T21:17:18;3.53;;;1.63;;
10063;SDS011;5071;52.360;13.134;2023-08-07T21:22:22;2.63;;;1.40;;
10063;SDS011;5071;52.360;13.134;2023-08-07T21:27:24;2.77;;;2.10;;
10063;SDS011;5071;52.360;13.134;2023-08-07T21:32:26;5.27;;;2.47;;
10063;SDS011;5071;52.360;13.134;2023-08-07T21:37:30;3.57;;;1.60;;
10063;SDS011;5071;52.360;13.134;2023-08-07T21:42:33;2.97;;;2.00;;
10063;SDS011;5071;52.360;13.134;2023-08-07T21:47:35;3.87;;;1.57;;
10063;SDS011;5071;52.360;13.134;2023-08-07T21:52:38;6.40;;;2.00;;
10063;SDS011;5071;52.360;13.134;2023-08-07T21:57:40;3.73;;;1.93;;
10063;SDS011;5071;52.360;13.134;2023-08-07T22:02:43;4.20;;;2.20;;
10063;SDS011;5071;52.360;13.134;2023-08-07T22:07:49;7.63;;;1.97;;
10063;SDS011;5071;52.360;13.134;2023-08-07T22:12:51;6.20;;;2.00;;
10063;SDS011;5071;52.360;13.134;2023-08-07T22:17:54;2.27;;;1.77;;
10063;SDS011;5071;52.360;13.134;2023-08-07T22:22:58;2.37;;;1.70;;
10063;SDS011;5071;52.360;13.134;2023-08-07T22:28:01;4.47;;;1.90;;
10063;SDS011;5071;52.360;13.134;2023-08-07T22:33:03;5.60;;;1.90;;
10063;SDS011;5071;52.360;13.134;2023-08-07T22:38:07;4.13;;;1.97;;
10063;SDS011;5071;52.360;13.134;2023-08-07T22:43:09;4.33;;;1.77;;
10063;SDS011;5071;52.360;13.134;2023-08-07T22:48:13;5.03;;;1.83;;
10063;SDS011;5071;52.360;13.134;2023-08-07T22:53:17;4.37;;;1.87;;
10063;SDS011;5071;52.360;13.134;2023-08-07T22:58:19;6.60;;;2.77;;
10063;SDS011;5071;52.360;13.134;2023-08-07T23:03:21;5.40;;;1.73;;
10063;SDS011;5071;52.360;13.134;2023-08-07T23:08:25;4.93;;;2.57;;
10063;SDS011;5071;52.360;13.134;2023-08-07T23:13:27;3.43;;;1.87;;
10063;SDS011;5071;52.360;13.134;2023-08-07T23:18:29;5.07;;;2.23;;
10063;SDS011;5071;52.360;13.134;2023-08-07T23:23:33;6.60;;;2.10;;
10063;SDS011;5071;52.360;13.134;2023-08-07T23:28:35;2.43;;;1.90;;
10063;SDS011;5071;52.360;13.134;2023-08-07T23:33:37;3.97;;;1.60;;
10063;SDS011;5071;52.360;13.134;2023-08-07T23:38:41;3.07;;;2.10;;
10063;SDS011;5071;52.360;13.134;2023-08-07T23:43:43;4.60;;;2.20;;
10063;SDS011;5071;52.360;13.134;2023-08-07T23:48:45;4.43;;;2.17;;
10063;SDS011;5071;52.360;13.134;2023-08-07T23:53:48;4.07;;;2.00;;
10063;SDS011;5071;52.360;13.134;2023-08-07T23:58:51;3.60;;;1.80;;
